createdAt,value
2018-09-27T00:02:07.573Z,80.51
2018-09-27T00:04:35.640Z,80.32
2018-09-27T00:07:03.673Z,81.22
2018-09-27T00:09:31.671Z,82.01
2018-09-27T00:11:59.737Z,81.54
2018-09-27T00:14:27.746Z,82.00
2018-09-27T00:16:55.817Z,82.37
2018-09-27T00:19:23.823Z,82.01
2018-09-27T00:21:51.822Z,81.84
2018-09-27T00:24:19.853Z,82.18
2018-09-27T00:26:47.842Z,81.86
2018-09-27T00:29:15.888Z,82.02
2018-09-27T00:31:44.058Z,81.62
2018-09-27T00:34:12.106Z,81.98
2018-09-27T00:36:40.213Z,82.88
2018-09-27T00:39:10.804Z,83.11
2018-09-27T00:41:38.843Z,82.37
2018-09-27T00:44:06.890Z,82.74
2018-09-27T00:46:34.944Z,82.44
2018-09-27T00:49:02.981Z,82.60
2018-09-27T00:51:30.975Z,82.78
2018-09-27T00:53:59.205Z,82.89
2018-09-27T00:56:27.302Z,82.91
2018-09-27T00:58:55.258Z,82.22
2018-09-27T01:01:23.246Z,83.27
2018-09-27T01:03:51.374Z,82.71
2018-09-27T01:06:19.467Z,82.83
2018-09-27T01:08:47.667Z,83.84
2018-09-27T01:11:15.943Z,83.78
2018-09-27T01:13:43.978Z,82.15
2018-09-27T01:16:12.089Z,82.30
2018-09-27T01:18:40.174Z,82.94
2018-09-27T01:21:08.353Z,83.90
2018-09-27T01:23:36.484Z,83.09
2018-09-27T01:26:04.466Z,83.73
2018-09-27T01:28:32.475Z,83.90
2018-09-27T01:31:00.486Z,83.76
2018-09-27T01:33:28.514Z,83.70
2018-09-27T01:35:56.566Z,82.99
2018-09-27T01:38:24.573Z,83.05
2018-09-27T01:40:52.649Z,83.69
2018-09-27T01:43:20.700Z,83.49
2018-09-27T01:45:48.866Z,83.34
2018-09-27T01:48:17.361Z,84.18
2018-09-27T01:50:45.549Z,83.89
2018-09-27T01:53:13.659Z,84.12
2018-09-27T01:55:41.960Z,83.23
2018-09-27T01:58:10.050Z,84.03
2018-09-27T02:00:38.053Z,83.80
2018-09-27T02:03:06.067Z,84.16
2018-09-27T02:05:34.979Z,84.24
2018-09-27T02:08:03.135Z,83.98
2018-09-27T02:10:31.267Z,84.22
2018-09-27T02:12:59.338Z,84.22
2018-09-27T02:15:27.366Z,84.86
2018-09-27T02:17:55.528Z,85.38
2018-09-27T02:20:24.335Z,84.40
2018-09-27T02:22:52.377Z,84.65
2018-09-27T02:25:20.469Z,84.48
2018-09-27T02:27:48.560Z,84.85
2018-09-27T02:30:17.607Z,86.71
2018-09-27T02:32:45.740Z,86.08
2018-09-27T02:35:13.768Z,86.03
2018-09-27T02:37:41.820Z,86.65
2018-09-27T02:40:10.446Z,85.40
2018-09-27T02:42:38.525Z,86.64
2018-09-27T02:45:07.008Z,85.26
2018-09-27T02:47:35.239Z,85.93
2018-09-27T02:50:03.325Z,85.65
2018-09-27T02:52:31.452Z,87.30
2018-09-27T02:54:59.500Z,86.80
2018-09-27T02:57:27.476Z,87.65
2018-09-27T02:59:55.511Z,86.34
2018-09-27T03:02:23.545Z,85.46
2018-09-27T03:04:51.832Z,86.43
2018-09-27T03:07:19.885Z,86.76
2018-09-27T03:09:47.961Z,86.79
2018-09-27T03:12:16.067Z,86.38
2018-09-27T03:14:44.293Z,86.20
2018-09-27T03:17:12.361Z,86.13
2018-09-27T03:19:40.473Z,86.14
2018-09-27T03:22:08.662Z,86.79
2018-09-27T03:24:36.798Z,87.00
2018-09-27T03:27:04.965Z,88.10
2018-09-27T03:29:33.007Z,86.76
2018-09-27T03:32:01.259Z,86.65
2018-09-27T03:34:29.319Z,86.82
2018-09-27T03:36:57.388Z,87.42
2018-09-27T03:39:26.023Z,87.65
2018-09-27T03:41:54.137Z,87.96
2018-09-27T03:44:22.244Z,87.36
2018-09-27T03:46:50.717Z,87.59
2018-09-27T03:49:19.193Z,87.80
2018-09-27T03:51:47.463Z,87.97
2018-09-27T03:54:15.570Z,88.54
2018-09-27T03:56:43.684Z,88.71
2018-09-27T03:59:11.748Z,88.36
2018-09-27T04:01:39.836Z,88.38
2018-09-27T04:04:08.255Z,88.18
2018-09-27T04:06:36.341Z,87.98
2018-09-27T04:09:06.418Z,88.58
2018-09-27T04:11:34.477Z,88.06
2018-09-27T04:14:02.619Z,88.41
2018-09-27T04:16:30.703Z,88.02
2018-09-27T04:18:58.849Z,88.05
2018-09-27T04:21:26.908Z,88.04
2018-09-27T04:23:55.045Z,88.43
2018-09-27T04:26:23.117Z,88.96
2018-09-27T04:28:51.126Z,89.30
2018-09-27T04:31:19.364Z,87.33
2018-09-27T04:33:47.595Z,88.38
2018-09-27T04:36:15.844Z,89.12
2018-09-27T04:38:43.867Z,89.43
2018-09-27T04:41:11.965Z,88.67
2018-09-27T04:43:40.169Z,87.80
2018-09-27T04:46:08.307Z,88.13
2018-09-27T04:48:36.349Z,87.38
2018-09-27T04:51:04.503Z,87.47
2018-09-27T04:53:32.560Z,88.27
2018-09-27T04:56:00.795Z,88.02
2018-09-27T04:58:28.821Z,87.88
2018-09-27T05:00:56.864Z,87.82
2018-09-27T05:03:25.035Z,87.39
2018-09-27T05:05:53.132Z,87.13
2018-09-27T05:08:21.254Z,86.35
2018-09-27T05:10:49.352Z,85.26
2018-09-27T05:13:17.342Z,81.15
2018-09-27T05:15:45.433Z,77.03
2018-09-27T05:18:13.588Z,73.05
2018-09-27T05:20:42.065Z,71.34
2018-09-27T05:23:10.359Z,69.46
2018-09-27T05:25:38.505Z,66.70
2018-09-27T05:28:06.786Z,65.15
2018-09-27T05:30:35.000Z,66.09
2018-09-27T05:33:03.371Z,65.38
2018-09-27T05:35:31.460Z,61.73
2018-09-27T05:37:59.670Z,62.31
2018-09-27T05:40:27.874Z,61.30
2018-09-27T05:42:56.129Z,60.74
2018-09-27T05:45:24.384Z,61.72
2018-09-27T05:47:52.578Z,60.21
2018-09-27T05:50:21.044Z,59.49
2018-09-27T05:52:52.447Z,58.44
2018-09-27T05:55:23.922Z,58.44
2018-09-27T05:57:55.034Z,56.50
2018-09-27T06:00:24.458Z,56.10
2018-09-27T06:02:57.111Z,56.58
2018-09-27T06:05:29.272Z,56.69
2018-09-27T06:08:01.280Z,57.44
2018-09-27T06:10:34.684Z,57.88
2018-09-27T06:13:07.123Z,55.49
2018-09-27T06:15:41.803Z,54.81
2018-09-27T06:18:12.676Z,55.62
2018-09-27T06:20:40.949Z,55.82
2018-09-27T06:23:09.168Z,55.38
2018-09-27T06:25:37.397Z,55.25
2018-09-27T06:28:06.000Z,54.34
2018-09-27T06:30:34.248Z,53.75
2018-09-27T06:33:02.445Z,53.44
2018-09-27T06:35:30.611Z,53.84
2018-09-27T06:37:58.727Z,53.23
2018-09-27T06:40:27.162Z,51.74
2018-09-27T06:42:55.637Z,51.65
2018-09-27T06:45:23.827Z,50.48
2018-09-27T06:47:52.048Z,50.66
2018-09-27T06:50:20.239Z,50.79
2018-09-27T06:52:48.388Z,50.13
2018-09-27T06:55:17.096Z,50.62
2018-09-27T06:57:44.972Z,49.34
2018-09-27T07:00:13.130Z,49.43
2018-09-27T07:02:41.375Z,48.29
2018-09-27T07:05:09.465Z,48.59
2018-09-27T07:07:37.449Z,48.35
2018-09-27T07:10:05.573Z,47.71
2018-09-27T07:12:33.866Z,46.86
2018-09-27T07:15:01.929Z,46.92
2018-09-27T07:17:30.009Z,46.56
2018-09-27T07:19:58.259Z,46.75
2018-09-27T07:22:26.479Z,47.04
2018-09-27T07:24:54.773Z,46.23
2018-09-27T07:27:23.089Z,44.29
2018-09-27T07:29:51.362Z,43.57
2018-09-27T07:32:19.713Z,43.60
2018-09-27T07:34:47.868Z,40.09
2018-09-27T07:37:16.341Z,40.77
2018-09-27T07:39:44.619Z,41.14
2018-09-27T07:42:12.725Z,40.24
2018-09-27T07:44:40.854Z,39.40
2018-09-27T07:47:09.018Z,38.92
2018-09-27T07:49:37.232Z,36.17
2018-09-27T07:52:05.416Z,37.16
2018-09-27T07:54:33.687Z,34.70
2018-09-27T07:57:01.741Z,36.78
2018-09-27T07:59:29.884Z,37.52
2018-09-27T08:01:58.008Z,35.28
2018-09-27T08:04:26.163Z,35.62
2018-09-27T08:06:54.278Z,33.65
2018-09-27T08:09:22.364Z,35.38
2018-09-27T08:11:50.531Z,32.29
2018-09-27T08:14:18.628Z,32.55
2018-09-27T08:16:47.289Z,31.85
2018-09-27T08:19:15.271Z,33.44
2018-09-27T08:21:44.175Z,31.70
2018-09-27T08:24:12.415Z,32.51
2018-09-27T08:26:41.077Z,31.65
2018-09-27T08:29:09.413Z,30.46
2018-09-27T08:31:37.686Z,32.52
2018-09-27T08:34:05.862Z,31.39
2018-09-27T08:36:34.184Z,32.48
2018-09-27T08:39:02.600Z,31.06
2018-09-27T08:41:30.801Z,33.21
2018-09-27T08:43:59.109Z,32.01
2018-09-27T08:46:27.170Z,30.43
2018-09-27T08:48:55.281Z,31.53
2018-09-27T08:51:23.409Z,31.76
2018-09-27T08:53:51.615Z,31.80
2018-09-27T08:56:19.889Z,31.02
2018-09-27T08:58:47.922Z,30.83
2018-09-27T09:01:16.365Z,30.39
2018-09-27T09:03:44.602Z,28.56
2018-09-27T09:06:12.565Z,29.37
2018-09-27T09:08:40.741Z,30.25
2018-09-27T09:11:08.926Z,29.02
2018-09-27T09:13:37.121Z,28.90
2018-09-27T09:16:05.344Z,30.60
2018-09-27T09:18:34.161Z,29.09
2018-09-27T09:21:02.827Z,30.20
2018-09-27T09:23:31.979Z,28.41
2018-09-27T09:26:00.245Z,28.62
2018-09-27T09:28:28.524Z,28.07
2018-09-27T09:30:56.786Z,30.49
2018-09-27T09:33:25.411Z,28.50
2018-09-27T09:35:53.659Z,29.57
2018-09-27T09:38:21.808Z,29.11
2018-09-27T09:40:49.979Z,25.79
2018-09-27T09:43:18.045Z,27.14
2018-09-27T09:45:46.244Z,26.98
2018-09-27T09:48:14.450Z,26.93
2018-09-27T09:50:42.651Z,27.12
2018-09-27T09:53:10.811Z,27.63
2018-09-27T09:55:38.928Z,27.05
2018-09-27T09:58:07.154Z,27.61
2018-09-27T10:00:36.793Z,27.32
2018-09-27T10:03:05.608Z,28.23
2018-09-27T10:05:33.818Z,26.38
2018-09-27T10:08:01.893Z,26.94
2018-09-27T10:10:29.909Z,26.72
2018-09-27T10:12:58.436Z,26.58
2018-09-27T10:15:26.516Z,26.52
2018-09-27T10:17:54.613Z,26.06
2018-09-27T10:20:22.796Z,24.98
2018-09-27T10:22:50.980Z,25.64
2018-09-27T10:25:19.097Z,26.46
2018-09-27T10:27:47.380Z,26.54
2018-09-27T10:30:15.512Z,26.17
2018-09-27T10:32:43.562Z,27.92
2018-09-27T10:35:11.675Z,25.21
2018-09-27T10:37:39.677Z,24.78
2018-09-27T10:40:07.970Z,25.92
2018-09-27T10:42:36.233Z,25.15
2018-09-27T10:45:04.431Z,25.02
2018-09-27T10:47:32.478Z,25.44
2018-09-27T10:50:00.521Z,25.69
2018-09-27T10:52:28.880Z,25.02
2018-09-27T10:54:56.915Z,24.11
2018-09-27T10:57:24.969Z,24.68
2018-09-27T10:59:53.040Z,24.48
2018-09-27T11:02:21.104Z,25.39
2018-09-27T11:04:49.312Z,24.03
2018-09-27T11:07:17.400Z,24.53
2018-09-27T11:09:45.600Z,25.08
2018-09-27T11:12:13.737Z,23.04
2018-09-27T11:14:42.011Z,25.73
2018-09-27T11:17:10.257Z,25.70
2018-09-27T11:19:38.641Z,25.17
2018-09-27T11:22:07.000Z,24.49
2018-09-27T11:24:35.251Z,25.11
2018-09-27T11:27:03.499Z,25.60
2018-09-27T11:29:37.589Z,24.75
2018-09-27T11:32:11.156Z,25.29
2018-09-27T11:34:39.337Z,25.21
2018-09-27T11:37:07.504Z,26.12
2018-09-27T11:39:35.799Z,25.81
2018-09-27T11:42:04.454Z,25.22
2018-09-27T11:44:32.780Z,26.40
2018-09-27T11:47:01.365Z,25.15
2018-09-27T11:49:29.701Z,24.97
2018-09-27T11:51:57.590Z,25.27
2018-09-27T11:54:25.754Z,25.17
2018-09-27T11:56:54.009Z,23.93
2018-09-27T11:59:22.285Z,24.27
2018-09-27T12:01:50.427Z,25.26
2018-09-27T12:04:18.725Z,24.76
2018-09-27T12:06:46.983Z,26.11
2018-09-27T12:09:14.950Z,25.57
2018-09-27T12:11:43.185Z,25.52
2018-09-27T12:14:12.184Z,25.61
2018-09-27T12:16:40.480Z,25.40
2018-09-27T12:19:08.821Z,24.99
2018-09-27T12:21:37.301Z,24.75
2018-09-27T12:24:05.458Z,24.72
2018-09-27T12:26:33.527Z,23.88
2018-09-27T12:29:01.623Z,24.36
2018-09-27T12:31:29.769Z,24.97
2018-09-27T12:33:57.921Z,24.52
2018-09-27T12:36:26.304Z,24.98
2018-09-27T12:38:54.646Z,24.79
2018-09-27T12:41:22.962Z,24.81
2018-09-27T12:43:51.169Z,24.12
2018-09-27T12:46:19.254Z,24.56
2018-09-27T12:48:47.844Z,25.13
2018-09-27T12:51:16.056Z,24.26
2018-09-27T12:53:43.972Z,23.77
2018-09-27T12:56:11.983Z,25.08
2018-09-27T12:58:40.154Z,24.35
2018-09-27T13:01:08.360Z,25.10
2018-09-27T13:03:36.327Z,24.87
2018-09-27T13:06:04.365Z,26.22
2018-09-27T13:08:32.899Z,25.30
2018-09-27T13:11:01.027Z,25.12
2018-09-27T13:13:29.585Z,24.27
2018-09-27T13:15:57.577Z,25.18
2018-09-27T13:18:25.677Z,25.43
2018-09-27T13:20:53.709Z,24.16
2018-09-27T13:23:21.954Z,24.48
2018-09-27T13:25:50.073Z,24.42
2018-09-27T13:28:18.108Z,24.33
2018-09-27T13:30:46.158Z,23.52
2018-09-27T13:33:15.892Z,24.16
2018-09-27T13:35:43.963Z,24.05
2018-09-27T13:38:12.281Z,24.92
2018-09-27T13:40:40.637Z,24.68
2018-09-27T13:43:08.825Z,24.55
2018-09-27T13:45:36.851Z,24.53
2018-09-27T13:48:04.950Z,24.63
2018-09-27T13:50:33.251Z,26.31
2018-09-27T13:53:01.411Z,25.55
2018-09-27T13:55:29.496Z,24.96
2018-09-27T13:57:57.563Z,24.72
2018-09-27T14:00:25.675Z,24.52
2018-09-27T14:02:54.081Z,25.42
2018-09-27T14:05:22.193Z,25.29
2018-09-27T14:07:50.442Z,24.95
2018-09-27T14:10:18.507Z,27.27
2018-09-27T14:12:46.676Z,25.19
2018-09-27T14:15:14.687Z,24.91
2018-09-27T14:17:42.700Z,26.29
2018-09-27T14:20:10.879Z,25.83
2018-09-27T14:22:39.012Z,27.95
2018-09-27T14:25:07.127Z,27.08
2018-09-27T14:27:35.234Z,27.18
2018-09-27T14:30:03.330Z,27.08
2018-09-27T14:32:31.411Z,27.99
2018-09-27T14:34:59.652Z,25.87
2018-09-27T14:37:27.824Z,26.89
2018-09-27T14:39:55.876Z,27.36
2018-09-27T14:42:24.189Z,27.80
2018-09-27T14:44:52.439Z,27.87
2018-09-27T14:47:20.491Z,28.34
2018-09-27T14:49:48.569Z,28.88
2018-09-27T14:52:16.701Z,30.70
2018-09-27T14:54:44.967Z,28.99
2018-09-27T14:57:13.476Z,29.22
2018-09-27T14:59:41.549Z,30.37
2018-09-27T15:02:09.648Z,29.87
2018-09-27T15:04:37.855Z,30.32
2018-09-27T15:07:05.883Z,31.55
2018-09-27T15:09:34.168Z,32.23
2018-09-27T15:12:02.171Z,32.25
2018-09-27T15:14:30.241Z,32.42
2018-09-27T15:16:58.444Z,32.45
2018-09-27T15:19:26.788Z,31.91
2018-09-27T15:21:55.272Z,30.98
2018-09-27T15:24:24.209Z,33.04
2018-09-27T15:26:52.834Z,32.16
2018-09-27T15:29:21.281Z,34.48
2018-09-27T15:31:49.323Z,34.80
2018-09-27T15:34:17.576Z,35.75
2018-09-27T15:36:45.781Z,36.39
2018-09-27T15:39:13.866Z,36.62
2018-09-27T15:41:41.959Z,38.39
2018-09-27T15:44:10.119Z,39.33
2018-09-27T15:46:38.394Z,39.80
2018-09-27T15:49:06.898Z,39.77
2018-09-27T15:51:36.043Z,40.18
2018-09-27T15:54:04.615Z,41.98
2018-09-27T15:56:33.500Z,42.20
2018-09-27T15:59:01.947Z,41.85
2018-09-27T16:01:30.423Z,43.44
2018-09-27T16:03:58.908Z,43.65
2018-09-27T16:06:27.296Z,43.36
2018-09-27T16:08:55.932Z,44.98
2018-09-27T16:11:25.113Z,45.41
2018-09-27T16:13:53.567Z,45.60
2018-09-27T16:16:21.928Z,45.05
2018-09-27T16:18:50.523Z,46.22
2018-09-27T16:21:20.767Z,46.02
2018-09-27T16:23:50.187Z,46.15
2018-09-27T16:26:20.876Z,44.83
2018-09-27T16:28:49.385Z,43.51
2018-09-27T16:31:18.101Z,44.51
2018-09-27T16:33:46.629Z,42.59
2018-09-27T16:36:15.116Z,43.31
2018-09-27T16:38:43.565Z,44.62
2018-09-27T16:41:12.550Z,45.30
2018-09-27T16:43:41.106Z,45.53
2018-09-27T16:46:09.620Z,45.09
2018-09-27T16:48:38.809Z,46.14
2018-09-27T16:51:07.229Z,46.37
2018-09-27T16:53:36.159Z,47.30
2018-09-27T16:56:04.786Z,46.70
2018-09-27T16:58:33.333Z,47.20
2018-09-27T17:01:02.108Z,47.54
2018-09-27T17:03:30.990Z,48.21
2018-09-27T17:06:00.525Z,47.79
2018-09-27T17:08:29.742Z,46.50
2018-09-27T17:11:01.808Z,47.35
2018-09-27T17:13:30.894Z,47.05
2018-09-27T17:16:03.264Z,47.46
2018-09-27T17:18:32.134Z,47.07
2018-09-27T17:21:00.806Z,47.42
2018-09-27T17:23:29.376Z,46.96
2018-09-27T17:25:57.778Z,48.43
2018-09-27T17:28:26.449Z,49.06
2018-09-27T17:30:56.650Z,49.50
2018-09-27T17:33:26.341Z,49.59
2018-09-27T17:35:54.645Z,49.70
2018-09-27T17:38:23.021Z,49.90
2018-09-27T17:40:51.477Z,50.57
2018-09-27T17:43:20.716Z,49.96
2018-09-27T17:45:49.195Z,50.38
2018-09-27T17:48:17.512Z,50.34
2018-09-27T17:50:45.927Z,50.59
2018-09-27T17:53:14.365Z,50.72
2018-09-27T17:55:42.920Z,52.41
2018-09-27T17:58:11.304Z,51.76
2018-09-27T18:00:39.720Z,51.11
2018-09-27T18:03:08.137Z,51.45
2018-09-27T18:05:36.593Z,51.42
2018-09-27T18:08:05.324Z,53.22
2018-09-27T18:10:34.266Z,51.75
2018-09-27T18:13:02.775Z,53.65
2018-09-27T18:15:31.295Z,54.31
2018-09-27T18:17:59.814Z,53.87
2018-09-27T18:20:30.867Z,54.41
2018-09-27T18:22:59.358Z,55.34
2018-09-27T18:25:28.702Z,54.63
2018-09-27T18:27:57.043Z,55.38
2018-09-27T18:30:25.460Z,54.91
2018-09-27T18:32:53.818Z,54.68
2018-09-27T18:35:22.248Z,54.25
2018-09-27T18:37:50.640Z,53.98
2018-09-27T18:40:19.086Z,54.66
2018-09-27T18:42:47.930Z,54.50
2018-09-27T18:45:16.893Z,54.16
2018-09-27T18:47:45.093Z,53.79
2018-09-27T18:50:13.508Z,53.13
2018-09-27T18:52:41.746Z,54.38
2018-09-27T18:55:09.949Z,53.19
2018-09-27T18:57:38.127Z,53.37
2018-09-27T19:00:06.688Z,53.90
2018-09-27T19:02:35.338Z,54.18
2018-09-27T19:05:03.632Z,54.36
2018-09-27T19:07:31.858Z,54.30
2018-09-27T19:09:59.888Z,53.59
2018-09-27T19:12:28.141Z,53.58
2018-09-27T19:14:56.425Z,54.05
2018-09-27T19:17:26.187Z,54.89
2018-09-27T19:19:55.404Z,55.17
2018-09-27T19:22:23.518Z,56.07
2018-09-27T19:24:51.851Z,55.63
2018-09-27T19:27:20.786Z,54.78
2018-09-27T19:29:48.959Z,55.28
2018-09-27T19:32:17.087Z,56.67
2018-09-27T19:34:45.279Z,56.59
2018-09-27T19:37:13.514Z,56.88
2018-09-27T19:39:41.579Z,57.69
2018-09-27T19:42:09.579Z,57.00
2018-09-27T19:44:37.611Z,58.00
2018-09-27T19:47:07.167Z,58.27
2018-09-27T19:49:35.300Z,58.80
2018-09-27T19:52:03.347Z,59.80
2018-09-27T19:54:31.416Z,59.12
2018-09-27T19:56:59.455Z,58.68
2018-09-27T19:59:27.596Z,58.32
2018-09-27T20:01:55.620Z,58.84
2018-09-27T20:04:23.659Z,59.81
2018-09-27T20:06:51.894Z,60.10
2018-09-27T20:09:20.024Z,60.05
2018-09-27T20:11:48.044Z,59.26
2018-09-27T20:14:16.272Z,59.68
2018-09-27T20:16:44.450Z,59.89
2018-09-27T20:19:12.636Z,60.58
2018-09-27T20:21:40.825Z,60.15
2018-09-27T20:24:08.948Z,59.94
2018-09-27T20:26:37.086Z,60.59
2018-09-27T20:29:05.733Z,61.79
2018-09-27T20:31:33.902Z,61.29
2018-09-27T20:34:02.624Z,61.90
2018-09-27T20:36:30.923Z,61.81
2018-09-27T20:38:59.447Z,62.76
2018-09-27T20:41:27.731Z,62.90
2018-09-27T20:43:55.865Z,63.03
2018-09-27T20:46:24.092Z,64.20
2018-09-27T20:48:52.334Z,64.09
2018-09-27T20:51:20.654Z,63.61
2018-09-27T20:53:48.808Z,64.27
2018-09-27T20:56:16.957Z,64.46
2018-09-27T20:58:45.233Z,64.41
2018-09-27T21:01:13.520Z,65.06
2018-09-27T21:03:41.875Z,65.89
2018-09-27T21:06:10.207Z,65.91
2018-09-27T21:08:38.286Z,65.71
2018-09-27T21:11:06.656Z,66.16
2018-09-27T21:13:34.867Z,66.37
2018-09-27T21:16:03.153Z,66.34
2018-09-27T21:18:31.436Z,66.23
2018-09-27T21:21:00.027Z,65.91
2018-09-27T21:23:28.643Z,65.71
2018-09-27T21:25:56.818Z,66.04
2018-09-27T21:28:26.204Z,66.25
2018-09-27T21:30:55.553Z,65.38
2018-09-27T21:33:24.849Z,65.26
2018-09-27T21:35:53.164Z,64.39
2018-09-27T21:38:21.345Z,64.73
2018-09-27T21:40:49.659Z,64.41
2018-09-27T21:43:17.897Z,65.29
2018-09-27T21:45:46.111Z,65.65
2018-09-27T21:48:14.339Z,66.35
2018-09-27T21:50:42.607Z,65.07
2018-09-27T21:53:10.727Z,66.34
2018-09-27T21:55:38.831Z,66.12
2018-09-27T21:58:07.054Z,66.49
2018-09-27T22:00:36.679Z,66.24
2018-09-27T22:03:04.918Z,66.17
2018-09-27T22:05:33.024Z,66.14
2018-09-27T22:08:01.118Z,66.37
2018-09-27T22:10:29.385Z,65.62
2018-09-27T22:12:57.611Z,65.44
2018-09-27T22:15:25.757Z,64.03
2018-09-27T22:17:53.908Z,64.56
2018-09-27T22:20:22.766Z,66.14
2018-09-27T22:22:51.200Z,66.63
2018-09-27T22:25:19.499Z,67.79
2018-09-27T22:27:47.747Z,68.09
2018-09-27T22:30:16.314Z,68.02
2018-09-27T22:32:44.558Z,68.56
2018-09-27T22:35:12.779Z,68.43
2018-09-27T22:37:42.715Z,67.41
2018-09-27T22:40:11.040Z,68.75
2018-09-27T22:42:39.154Z,67.91
2018-09-27T22:45:07.281Z,67.50
2018-09-27T22:47:35.374Z,68.65
2018-09-27T22:50:03.721Z,69.17
2018-09-27T22:52:31.830Z,69.02
2018-09-27T22:55:00.142Z,69.53
2018-09-27T22:57:28.553Z,69.70
2018-09-27T22:59:56.757Z,69.92
2018-09-27T23:02:24.881Z,70.00
2018-09-27T23:04:52.990Z,70.60
2018-09-27T23:07:21.058Z,69.77
2018-09-27T23:09:49.163Z,70.30
2018-09-27T23:12:17.480Z,71.06
2018-09-27T23:14:45.634Z,71.59
2018-09-27T23:17:13.774Z,70.61
2018-09-27T23:19:41.790Z,71.57
2018-09-27T23:22:09.884Z,71.57
2018-09-27T23:24:38.182Z,72.01
2018-09-27T23:27:06.267Z,71.63
2018-09-27T23:29:34.404Z,71.39
2018-09-27T23:32:02.443Z,71.63
2018-09-27T23:34:30.662Z,71.43
2018-09-27T23:36:58.777Z,71.12
2018-09-27T23:39:26.900Z,70.38
2018-09-27T23:41:55.032Z,69.82
2018-09-27T23:44:23.189Z,69.95
2018-09-27T23:46:51.382Z,69.69
2018-09-27T23:49:19.565Z,69.45
2018-09-27T23:51:47.673Z,69.57
2018-09-27T23:54:15.799Z,69.51
2018-09-27T23:56:43.820Z,70.11
2018-09-27T23:59:11.957Z,70.52
